Time;durP1;ratioP1;P1;durP2;ratioP2;P2;SDS_P1;SDS_P2;PMS_P1;PMS_P2;Temp;Humidity;BMP_temperature;BMP_pressure;BME280_temperature;BME280_humidity;BME280_pressure;Samples;Min_cycle;Max_cycle;Signal;HPM_P1;HPM_P2
2023/01/16 00:02:04;;;;;;;5.77;3.17;;;;;;;;;;6155138;23;20497;-89
2023/01/16 00:05:09;;;;;;;5.50;3.27;;;;;;;;;;6156394;23;20168;-90
2023/01/16 00:08:16;;;;;;;7.93;3.37;;;;;;;;;;6155259;23;20164;-90
2023/01/16 00:11:55;;;;;;;7.77;3.93;;;;;;;;;;6155235;23;20152;-89
2023/01/16 00:15:00;;;;;;;6.70;3.07;;;;;;;;;;6155828;23;20164;-89
2023/01/16 00:18:10;;;;;;;4.77;2.63;;;;;;;;;;6154894;23;20152;-90
2023/01/16 00:21:15;;;;;;;3.67;2.10;;;;;;;;;;6155085;23;20623;-87
2023/01/16 00:24:22;;;;;;;6.33;3.00;;;;;;;;;;6155849;23;20156;-88
2023/01/16 00:27:28;;;;;;;5.50;3.23;;;;;;;;;;6155566;23;20536;-90
2023/01/16 00:30:34;;;;;;;7.23;3.33;;;;;;;;;;6155366;23;20255;-89
2023/01/16 00:33:39;;;;;;;7.90;3.30;;;;;;;;;;6155478;23;20173;-90
2023/01/16 00:36:45;;;;;;;9.80;3.63;;;;;;;;;;6155805;23;20216;-88
2023/01/16 00:39:52;;;;;;;9.27;3.53;;;;;;;;;;6154577;23;20177;-88
2023/01/16 00:42:57;;;;;;;7.13;3.50;;;;;;;;;;6155234;23;20168;-89
2023/01/16 00:46:02;;;;;;;8.40;4.23;;;;;;;;;;6155355;23;20169;-89
2023/01/16 00:49:08;;;;;;;8.00;3.87;;;;;;;;;;6153794;23;20169;-87
2023/01/16 00:52:14;;;;;;;7.87;4.23;;;;;;;;;;6155778;23;20197;-91
2023/01/16 00:55:21;;;;;;;8.57;4.27;;;;;;;;;;6154924;23;20169;-89
2023/01/16 00:58:27;;;;;;;8.93;4.13;;;;;;;;;;6155702;23;20198;-90
2023/01/16 01:01:32;;;;;;;7.57;3.30;;;;;;;;;;6157216;23;20190;-90
2023/01/16 01:04:37;;;;;;;8.30;4.00;;;;;;;;;;6156032;23;20164;-91
2023/01/16 01:07:43;;;;;;;7.43;3.83;;;;;;;;;;6157090;23;20189;-91
2023/01/16 01:11:32;;;;;;;11.13;4.30;;;;;;;;;;6154890;23;20191;-90
2023/01/16 01:14:40;;;;;;;7.50;3.90;;;;;;;;;;6156873;23;20180;-90
2023/01/16 01:17:46;;;;;;;9.10;3.97;;;;;;;;;;6156392;23;20168;-87
2023/01/16 01:20:52;;;;;;;6.70;3.40;;;;;;;;;;6156717;23;20184;-92
2023/01/16 01:23:57;;;;;;;6.80;3.70;;;;;;;;;;6155189;23;20176;-89
2023/01/16 01:27:03;;;;;;;7.43;3.80;;;;;;;;;;6155246;23;20157;-88
2023/01/16 01:30:11;;;;;;;7.77;4.07;;;;;;;;;;6156189;23;20571;-92
2023/01/16 01:33:17;;;;;;;9.20;4.33;;;;;;;;;;6154748;23;20640;-91
2023/01/16 01:36:22;;;;;;;11.17;5.23;;;;;;;;;;6156592;23;20168;-89
2023/01/16 01:39:27;;;;;;;12.67;5.37;;;;;;;;;;6155888;23;20177;-88
2023/01/16 01:42:44;;;;;;;10.47;5.10;;;;;;;;;;6155296;23;20176;-87
2023/01/16 01:45:53;;;;;;;13.30;5.37;;;;;;;;;;6154450;23;20224;-89
2023/01/16 01:49:00;;;;;;;10.13;4.87;;;;;;;;;;6155060;23;20549;-89
2023/01/16 01:52:07;;;;;;;10.53;4.80;;;;;;;;;;6156078;23;20211;-91
2023/01/16 01:55:14;;;;;;;10.97;5.13;;;;;;;;;;6154724;23;20180;-89
2023/01/16 01:58:22;;;;;;;14.23;5.67;;;;;;;;;;6155943;23;20189;-90
2023/01/16 02:01:32;;;;;;;17.57;5.70;;;;;;;;;;6154817;23;20250;-88
2023/01/16 02:04:39;;;;;;;22.53;5.40;;;;;;;;;;6154636;23;20197;-86
2023/01/16 02:07:44;;;;;;;11.30;6.37;;;;;;;;;;6154393;23;20217;-88
2023/01/16 02:11:28;;;;;;;13.27;5.90;;;;;;;;;;6153859;23;20227;-90
2023/01/16 02:14:35;;;;;;;12.47;5.20;;;;;;;;;;6154702;23;20189;-88
2023/01/16 02:21:16;;;;;;;27.37;6.07;;;;;;;;;;6153698;23;20183;-91
2023/01/16 02:24:39;;;;;;;35.90;6.53;;;;;;;;;;6153171;23;20168;-89
2023/01/16 02:27:58;;;;;;;32.63;6.47;;;;;;;;;;6153534;23;20218;-88
2023/01/16 02:31:22;;;;;;;14.70;5.60;;;;;;;;;;6153720;23;20196;-88
2023/01/16 02:34:34;;;;;;;12.43;5.63;;;;;;;;;;6153742;23;20191;-91
2023/01/16 02:37:45;;;;;;;13.70;5.40;;;;;;;;;;6155119;23;20185;-89
2023/01/16 02:40:54;;;;;;;11.23;5.33;;;;;;;;;;6155002;23;20187;-89
2023/01/16 02:44:02;;;;;;;10.60;5.30;;;;;;;;;;6153552;23;20171;-88
2023/01/16 02:47:14;;;;;;;11.53;5.67;;;;;;;;;;6152591;23;20176;-90
2023/01/16 02:50:22;;;;;;;11.43;5.50;;;;;;;;;;6153834;23;20247;-90
2023/01/16 02:53:30;;;;;;;9.97;5.33;;;;;;;;;;6156186;23;20160;-90
2023/01/16 02:56:41;;;;;;;8.97;4.67;;;;;;;;;;6155327;23;20300;-89
2023/01/16 02:59:47;;;;;;;8.07;4.57;;;;;;;;;;6156188;23;20260;-90
2023/01/16 03:02:55;;;;;;;11.87;4.83;;;;;;;;;;6156610;23;20189;-89
2023/01/16 03:06:04;;;;;;;9.77;3.90;;;;;;;;;;6155992;23;20225;-89
2023/01/16 03:09:17;;;;;;;10.03;4.93;;;;;;;;;;6156734;23;20173;-90
2023/01/16 03:12:26;;;;;;;10.03;4.97;;;;;;;;;;6154645;23;20238;-89
2023/01/16 03:15:37;;;;;;;10.47;5.47;;;;;;;;;;6155289;23;20168;-89
2023/01/16 03:18:52;;;;;;;12.90;7.07;;;;;;;;;;6154468;23;20196;-89
2023/01/16 03:22:06;;;;;;;8.93;4.70;;;;;;;;;;6155533;23;20172;-89
2023/01/16 03:25:21;;;;;;;9.17;4.40;;;;;;;;;;6155978;23;20247;-90
2023/01/16 03:28:34;;;;;;;9.80;4.93;;;;;;;;;;6154647;23;20172;-91
2023/01/16 03:31:41;;;;;;;11.00;4.60;;;;;;;;;;6154576;23;20172;-90
2023/01/16 03:34:52;;;;;;;9.37;4.47;;;;;;;;;;6136682;23;20251;-89
2023/01/16 03:37:58;;;;;;;8.27;4.33;;;;;;;;;;6154475;23;20169;-88
2023/01/16 03:41:05;;;;;;;8.73;4.67;;;;;;;;;;6153925;23;20281;-90
2023/01/16 03:44:14;;;;;;;10.07;4.57;;;;;;;;;;6153793;23;20213;-90
2023/01/16 03:47:23;;;;;;;9.80;4.73;;;;;;;;;;6153502;23;20161;-90
2023/01/16 03:50:30;;;;;;;13.50;4.80;;;;;;;;;;6152484;23;20258;-90
2023/01/16 03:53:40;;;;;;;10.57;4.83;;;;;;;;;;6153454;23;20220;-90
2023/01/16 03:56:48;;;;;;;9.30;4.10;;;;;;;;;;6152870;23;20172;-90
2023/01/16 03:59:54;;;;;;;6.83;3.93;;;;;;;;;;6150995;23;20576;-88
2023/01/16 04:03:03;;;;;;;8.07;3.87;;;;;;;;;;6152432;23;20161;-89
2023/01/16 04:06:12;;;;;;;8.57;3.90;;;;;;;;;;6152795;23;20172;-91
2023/01/16 04:09:22;;;;;;;7.00;3.50;;;;;;;;;;6153066;23;20164;-89
2023/01/16 04:12:33;;;;;;;6.30;3.03;;;;;;;;;;6153921;23;20216;-89
2023/01/16 04:15:40;;;;;;;4.73;3.00;;;;;;;;;;6154481;23;20165;-87
2023/01/16 04:18:47;;;;;;;8.33;3.23;;;;;;;;;;6154001;23;20188;-89
2023/01/16 04:21:54;;;;;;;5.73;2.73;;;;;;;;;;6154578;23;20176;-90
2023/01/16 04:25:01;;;;;;;5.07;2.53;;;;;;;;;;6155598;23;20172;-88
2023/01/16 04:28:06;;;;;;;6.87;2.70;;;;;;;;;;6154923;23;20184;-91
2023/01/16 04:31:12;;;;;;;5.47;2.80;;;;;;;;;;6154813;23;20243;-88
2023/01/16 04:34:17;;;;;;;7.63;3.37;;;;;;;;;;6154987;23;20173;-90
2023/01/16 04:37:23;;;;;;;6.47;3.20;;;;;;;;;;6155095;23;20168;-91
2023/01/16 04:40:29;;;;;;;7.20;3.70;;;;;;;;;;6155702;23;20193;-91
2023/01/16 04:43:35;;;;;;;7.73;4.07;;;;;;;;;;6154017;23;20164;-90
2023/01/16 04:46:40;;;;;;;6.47;3.37;;;;;;;;;;6154119;23;20156;-89
2023/01/16 04:49:45;;;;;;;6.20;3.10;;;;;;;;;;6154860;23;20164;-88
2023/01/16 04:52:52;;;;;;;4.70;3.20;;;;;;;;;;6155356;23;20172;-88
2023/01/16 04:55:59;;;;;;;6.00;3.23;;;;;;;;;;6155120;23;20172;-87
2023/01/16 04:59:05;;;;;;;7.13;3.27;;;;;;;;;;6155998;23;20177;-88
2023/01/16 05:02:24;;;;;;;7.70;3.27;;;;;;;;;;6153495;23;20168;-89
2023/01/16 05:05:29;;;;;;;9.80;3.30;;;;;;;;;;6154799;23;20213;-90
2023/01/16 05:08:36;;;;;;;5.10;3.23;;;;;;;;;;6154715;23;20301;-89
2023/01/16 05:11:41;;;;;;;5.50;3.23;;;;;;;;;;6154175;23;20196;-89
2023/01/16 05:14:47;;;;;;;6.23;3.70;;;;;;;;;;6153588;23;20180;-90
2023/01/16 05:17:58;;;;;;;5.90;3.70;;;;;;;;;;6153125;23;20244;-91
2023/01/16 05:21:04;;;;;;;7.00;3.90;;;;;;;;;;6154826;23;20157;-91
2023/01/16 05:24:11;;;;;;;6.30;3.50;;;;;;;;;;6156185;23;20168;-90
2023/01/16 05:27:16;;;;;;;8.90;4.00;;;;;;;;;;6154113;23;20216;-89
2023/01/16 05:30:21;;;;;;;8.17;4.27;;;;;;;;;;6154387;23;20176;-88
2023/01/16 05:33:27;;;;;;;10.93;4.10;;;;;;;;;;6155117;23;20175;-91
2023/01/16 05:36:33;;;;;;;9.93;3.83;;;;;;;;;;6138250;23;20160;-91
2023/01/16 05:39:40;;;;;;;7.00;3.93;;;;;;;;;;6155496;23;20168;-89
2023/01/16 05:42:47;;;;;;;9.60;4.27;;;;;;;;;;6154882;23;20196;-91
2023/01/16 05:45:53;;;;;;;9.83;4.80;;;;;;;;;;6156488;23;20172;-88
2023/01/16 05:48:58;;;;;;;7.83;4.00;;;;;;;;;;6155032;23;20168;-89
2023/01/16 05:52:03;;;;;;;11.30;4.90;;;;;;;;;;6155686;23;20197;-90
2023/01/16 05:55:11;;;;;;;12.00;5.60;;;;;;;;;;6154929;23;20254;-90
2023/01/16 05:58:17;;;;;;;12.07;6.27;;;;;;;;;;6154890;23;20164;-91
2023/01/16 06:01:23;;;;;;;26.67;10.00;;;;;;;;;;6154014;23;20180;-90
2023/01/16 06:04:29;;;;;;;27.50;9.90;;;;;;;;;;6153821;23;20176;-88
2023/01/16 06:07:34;;;;;;;25.70;9.03;;;;;;;;;;6150574;23;20220;-89
2023/01/16 06:10:41;;;;;;;27.37;10.43;;;;;;;;;;6152287;23;20267;-89
2023/01/16 06:13:48;;;;;;;15.13;6.67;;;;;;;;;;6155400;23;20216;-90
2023/01/16 06:16:53;;;;;;;14.67;7.00;;;;;;;;;;6155560;23;20168;-90
2023/01/16 06:19:59;;;;;;;11.10;5.93;;;;;;;;;;6156140;23;20168;-90
2023/01/16 06:23:08;;;;;;;35.30;15.20;;;;;;;;;;6155153;23;20215;-91
2023/01/16 06:26:16;;;;;;;10.97;6.33;;;;;;;;;;6155556;23;20193;-90
2023/01/16 06:29:21;;;;;;;10.27;5.70;;;;;;;;;;6157291;23;20169;-91
2023/01/16 06:32:26;;;;;;;7.90;3.90;;;;;;;;;;6155847;23;20219;-91
2023/01/16 06:35:31;;;;;;;10.83;5.63;;;;;;;;;;6155481;23;20151;-90
2023/01/16 06:38:37;;;;;;;16.10;6.17;;;;;;;;;;6156828;23;20169;-89
2023/01/16 06:41:45;;;;;;;11.73;4.27;;;;;;;;;;6160661;23;20203;-90
2023/01/16 06:44:51;;;;;;;7.10;4.07;;;;;;;;;;6157393;23;20168;-90
2023/01/16 06:47:57;;;;;;;9.53;4.37;;;;;;;;;;6160161;23;20193;-90
2023/01/16 06:51:03;;;;;;;6.50;4.03;;;;;;;;;;6157807;23;20667;-91
2023/01/16 06:54:08;;;;;;;11.90;4.53;;;;;;;;;;6156619;23;20184;-89
2023/01/16 06:57:15;;;;;;;12.03;5.20;;;;;;;;;;6156234;23;20153;-90
2023/01/16 07:00:21;;;;;;;11.50;5.83;;;;;;;;;;6157428;23;20164;-89
2023/01/16 07:03:27;;;;;;;12.67;6.03;;;;;;;;;;6159345;23;20180;-90
2023/01/16 07:06:32;;;;;;;11.23;5.60;;;;;;;;;;6156438;23;20228;-89
2023/01/16 07:09:38;;;;;;;11.80;5.63;;;;;;;;;;6156370;23;20177;-90
2023/01/16 07:12:48;;;;;;;12.30;5.30;;;;;;;;;;6155472;23;20185;-91
2023/01/16 09:34:38;;;;;;;11.97;5.13;;;;;;;;;;6150328;23;20221;-90
2023/01/16 09:37:44;;;;;;;8.53;3.40;;;;;;;;;;6159023;23;20177;-91
2023/01/16 09:40:54;;;;;;;3.83;1.53;;;;;;;;;;6160631;23;20206;-91
2023/01/16 09:43:58;;;;;;;3.87;1.70;;;;;;;;;;6160385;23;20173;-91
2023/01/16 09:47:04;;;;;;;4.33;1.37;;;;;;;;;;6158954;23;20173;-92
2023/01/16 09:50:16;;;;;;;6.77;2.07;;;;;;;;;;6159692;23;20156;-89
2023/01/16 10:00:17;;;;;;;2.77;1.50;;;;;;;;;;6158925;23;20192;-92
2023/01/16 10:03:22;;;;;;;3.67;1.70;;;;;;;;;;6159654;23;20172;-94
2023/01/16 10:06:34;;;;;;;6.50;3.00;;;;;;;;;;6158576;23;20168;-91
2023/01/16 10:09:46;;;;;;;4.93;2.50;;;;;;;;;;6158935;23;20156;-89
2023/01/16 10:13:05;;;;;;;5.90;2.87;;;;;;;;;;6158438;23;20196;-91
2023/01/16 10:16:17;;;;;;;9.03;3.13;;;;;;;;;;6159434;23;20192;-92
2023/01/16 10:19:26;;;;;;;8.33;3.20;;;;;;;;;;6158624;23;20238;-90
2023/01/16 10:22:39;;;;;;;6.20;2.20;;;;;;;;;;6158043;23;20176;-90
2023/01/16 10:25:52;;;;;;;3.30;1.63;;;;;;;;;;6159471;23;20216;-92
2023/01/16 10:29:05;;;;;;;1.90;1.20;;;;;;;;;;6158897;23;20152;-90
2023/01/16 10:32:13;;;;;;;3.90;1.10;;;;;;;;;;6159286;23;20233;-90
2023/01/16 10:35:22;;;;;;;1.67;1.10;;;;;;;;;;6158748;23;20196;-90
2023/01/16 10:38:42;;;;;;;4.97;2.67;;;;;;;;;;6159764;23;20169;-91
2023/01/16 10:52:14;;;;;;;3.47;1.60;;;;;;;;;;6157062;23;20216;-91
2023/01/16 10:55:22;;;;;;;1.77;1.10;;;;;;;;;;6157934;23;20201;-91
2023/01/16 10:58:30;;;;;;;2.00;1.10;;;;;;;;;;6157584;23;20470;-91
2023/01/16 11:04:56;;;;;;;2.80;0.97;;;;;;;;;;6158946;23;20200;-91
2023/01/16 11:08:08;;;;;;;4.30;1.17;;;;;;;;;;6157953;23;20173;-89
2023/01/16 11:24:50;;;;;;;1.70;0.87;;;;;;;;;;6159330;23;20223;-90
2023/01/16 11:28:15;;;;;;;2.67;1.00;;;;;;;;;;6159826;23;20169;-90
2023/01/16 11:31:24;;;;;;;1.30;0.70;;;;;;;;;;6159825;23;20268;-90
2023/01/16 11:34:33;;;;;;;2.17;0.83;;;;;;;;;;6160354;23;20196;-89
2023/01/16 11:37:39;;;;;;;1.53;0.80;;;;;;;;;;6160332;23;20169;-91
2023/01/16 11:40:49;;;;;;;3.43;1.63;;;;;;;;;;6159852;23;20156;-90
2023/01/16 11:47:43;;;;;;;1.80;0.83;;;;;;;;;;6158588;23;20176;-92
2023/01/16 11:50:58;;;;;;;1.63;0.60;;;;;;;;;;6158559;23;20176;-89
2023/01/16 11:54:05;;;;;;;1.37;0.70;;;;;;;;;;6160842;23;20168;-91
2023/01/16 11:57:23;;;;;;;1.77;0.90;;;;;;;;;;6159491;23;20208;-90
2023/01/16 12:00:49;;;;;;;2.33;0.70;;;;;;;;;;6158788;23;20238;-90
2023/01/16 12:04:09;;;;;;;0.83;0.60;;;;;;;;;;6159180;23;20169;-91
2023/01/16 12:07:21;;;;;;;2.20;0.70;;;;;;;;;;6159955;23;20169;-93
2023/01/16 12:10:32;;;;;;;4.63;0.70;;;;;;;;;;6160458;23;20161;-92
2023/01/16 12:17:31;;;;;;;1.27;0.50;;;;;;;;;;6162789;23;20213;-91
2023/01/16 12:20:42;;;;;;;1.10;0.60;;;;;;;;;;6160923;23;20164;-91
2023/01/16 12:24:05;;;;;;;1.63;0.63;;;;;;;;;;6160380;23;20226;-90
2023/01/16 12:27:16;;;;;;;0.60;0.50;;;;;;;;;;6160260;23;20181;-90
2023/01/16 12:30:26;;;;;;;1.50;0.70;;;;;;;;;;6157855;23;20192;-89
2023/01/16 12:33:38;;;;;;;1.60;0.80;;;;;;;;;;6156799;23;20217;-90
2023/01/16 12:36:51;;;;;;;4.53;1.70;;;;;;;;;;6128575;23;20632;-90
2023/01/16 12:40:04;;;;;;;0.90;0.70;;;;;;;;;;6127120;23;20254;-90
2023/01/16 12:43:22;;;;;;;1.42;0.88;;;;;;;;;;6126958;23;20176;-91
2023/01/16 12:46:31;;;;;;;1.70;0.80;;;;;;;;;;6126900;23;20157;-90
2023/01/16 12:49:52;;;;;;;1.42;0.88;;;;;;;;;;6125923;23;20239;-91
2023/01/16 12:53:07;;;;;;;0.80;0.47;;;;;;;;;;6126083;23;20192;-91
2023/01/16 12:56:30;;;;;;;1.45;0.60;;;;;;;;;;6125223;23;20185;-91
2023/01/16 12:59:37;;;;;;;1.30;1.17;;;;;;;;;;6124143;23;20185;-90
2023/01/16 13:02:45;;;;;;;3.08;0.80;;;;;;;;;;6127386;23;20226;-91
2023/01/16 13:05:53;;;;;;;1.53;0.90;;;;;;;;;;6125551;23;20178;-90
2023/01/16 13:09:08;;;;;;;2.33;0.80;;;;;;;;;;6125082;23;20198;-89
2023/01/16 13:15:43;;;;;;;0.98;0.65;;;;;;;;;;6124008;23;20217;-92
2023/01/16 13:18:51;;;;;;;1.35;0.63;;;;;;;;;;6125469;23;20178;-88
2023/01/16 13:22:00;;;;;;;1.42;0.73;;;;;;;;;;6126462;23;20158;-90
2023/01/16 13:25:10;;;;;;;2.10;1.30;;;;;;;;;;6125165;23;20202;-91
2023/01/16 13:28:20;;;;;;;1.13;0.60;;;;;;;;;;6125674;23;20162;-88
2023/01/16 13:31:29;;;;;;;2.33;0.88;;;;;;;;;;6125895;23;20235;-89
2023/01/16 13:34:37;;;;;;;3.17;1.20;;;;;;;;;;6134962;23;20200;-90
2023/01/16 13:37:56;;;;;;;2.33;0.80;;;;;;;;;;6155407;23;20169;-91
2023/01/16 13:41:16;;;;;;;7.07;3.00;;;;;;;;;;6155039;23;20204;-92
2023/01/16 13:47:46;;;;;;;2.58;1.10;;;;;;;;;;6156358;23;20164;-89
2023/01/16 13:50:58;;;;;;;4.32;2.30;;;;;;;;;;6155060;23;20691;-92
2023/01/16 13:54:10;;;;;;;1.77;1.00;;;;;;;;;;6154968;23;20240;-91
2023/01/16 13:57:19;;;;;;;3.00;1.52;;;;;;;;;;6155475;23;20173;-92
2023/01/16 14:00:25;;;;;;;3.25;1.42;;;;;;;;;;6154326;23;20168;-91
2023/01/16 14:03:32;;;;;;;7.68;2.85;;;;;;;;;;6155240;23;20253;-90
2023/01/16 14:06:44;;;;;;;2.38;1.38;;;;;;;;;;6154596;23;20168;-89
2023/01/16 14:10:05;;;;;;;3.15;1.20;;;;;;;;;;6154611;23;20190;-89
2023/01/16 14:13:16;;;;;;;4.70;2.37;;;;;;;;;;6154227;23;20196;-89
2023/01/16 14:16:38;;;;;;;0.98;0.60;;;;;;;;;;6154470;23;20169;-87
2023/01/16 14:19:52;;;;;;;1.73;0.85;;;;;;;;;;6155526;23;20310;-91
2023/01/16 14:26:25;;;;;;;3.20;1.90;;;;;;;;;;6172793;23;20235;-89
2023/01/16 14:29:31;;;;;;;4.85;1.58;;;;;;;;;;6154512;23;20176;-92
2023/01/16 14:32:38;;;;;;;4.57;2.20;;;;;;;;;;6154126;23;20200;-88
2023/01/16 14:35:45;;;;;;;9.52;4.50;;;;;;;;;;6156572;23;20264;-91
2023/01/16 14:38:58;;;;;;;6.03;3.13;;;;;;;;;;6154174;23;20181;-92
2023/01/16 14:56:02;;;;;;;2.97;1.00;;;;;;;;;;6156157;23;20164;-89
2023/01/16 14:59:11;;;;;;;3.23;0.97;;;;;;;;;;6156095;23;20172;-91
2023/01/16 15:02:30;;;;;;;2.10;1.30;;;;;;;;;;6158666;23;20168;-90
2023/01/16 15:08:56;;;;;;;7.00;2.20;;;;;;;;;;6156789;23;20305;-89
2023/01/16 15:12:03;;;;;;;3.53;2.07;;;;;;;;;;6157165;23;20172;-89
2023/01/16 15:15:21;;;;;;;4.37;2.10;;;;;;;;;;6157326;23;20498;-92
2023/01/16 15:22:01;;;;;;;8.43;5.27;;;;;;;;;;6157954;23;20173;-90
2023/01/16 15:25:14;;;;;;;10.03;3.47;;;;;;;;;;6158506;23;20190;-88
2023/01/16 15:28:24;;;;;;;8.50;2.90;;;;;;;;;;6158174;23;20179;-89
2023/01/16 15:31:32;;;;;;;11.37;5.20;;;;;;;;;;6157111;23;20234;-90
2023/01/16 15:34:38;;;;;;;5.63;2.80;;;;;;;;;;6157123;23;20470;-89
2023/01/16 15:37:54;;;;;;;5.00;2.33;;;;;;;;;;6158743;23;20172;-89
2023/01/16 15:40:59;;;;;;;7.40;2.40;;;;;;;;;;6158305;23;20217;-89
2023/01/16 15:47:42;;;;;;;40.90;13.03;;;;;;;;;;6147409;23;20368;-91
2023/01/16 15:50:54;;;;;;;32.37;11.80;;;;;;;;;;6155068;23;20259;-90
2023/01/16 15:54:00;;;;;;;25.47;10.60;;;;;;;;;;6156752;23;20196;-91
2023/01/16 15:57:05;;;;;;;24.23;8.40;;;;;;;;;;6157134;23;20165;-90
2023/01/16 16:03:48;;;;;;;19.17;7.50;;;;;;;;;;6157929;23;20230;-89
2023/01/16 16:06:57;;;;;;;15.67;6.70;;;;;;;;;;6158588;23;20169;-89
2023/01/16 16:10:04;;;;;;;9.67;4.83;;;;;;;;;;6156144;23;20193;-90
2023/01/16 16:13:10;;;;;;;11.70;4.57;;;;;;;;;;6156187;23;20196;-87
2023/01/16 16:19:45;;;;;;;7.47;3.47;;;;;;;;;;6158685;23;20169;-91
2023/01/16 16:22:51;;;;;;;6.57;3.33;;;;;;;;;;6177331;23;20173;-89
2023/01/16 16:25:58;;;;;;;7.90;3.17;;;;;;;;;;6158412;23;20165;-90
2023/01/16 16:29:05;;;;;;;7.57;3.20;;;;;;;;;;6156895;23;20197;-89
2023/01/16 16:32:15;;;;;;;4.40;2.57;;;;;;;;;;6160032;23;20196;-91
2023/01/16 16:35:24;;;;;;;7.80;4.57;;;;;;;;;;6157210;23;20195;-90
2023/01/16 16:38:32;;;;;;;14.67;5.80;;;;;;;;;;6158530;23;20192;-91
2023/01/16 16:45:16;;;;;;;10.63;5.23;;;;;;;;;;6158823;23;20204;-91
2023/01/16 16:48:25;;;;;;;30.47;12.23;;;;;;;;;;6158694;23;20168;-91
2023/01/16 16:51:33;;;;;;;58.77;19.93;;;;;;;;;;6160027;23;20184;-89
2023/01/16 16:54:40;;;;;;;35.13;12.80;;;;;;;;;;6158894;23;20200;-91
2023/01/16 16:57:45;;;;;;;21.40;8.87;;;;;;;;;;6158227;23;20156;-91
2023/01/16 20:33:27;;;;;;;15.23;6.53;;;;;;;;;;6140453;23;20212;-87
2023/01/16 20:36:41;;;;;;;15.60;6.93;;;;;;;;;;6158854;23;20188;-91
2023/01/16 20:50:08;;;;;;;13.90;7.17;;;;;;;;;;6161124;23;20192;-91
2023/01/16 20:53:20;;;;;;;15.67;6.73;;;;;;;;;;6160224;23;20204;-92
2023/01/16 20:56:26;;;;;;;25.63;9.57;;;;;;;;;;6161841;23;20164;-93
2023/01/16 20:59:32;;;;;;;19.97;7.57;;;;;;;;;;6159226;23;20239;-91
2023/01/16 21:02:38;;;;;;;16.47;8.27;;;;;;;;;;6159407;23;20295;-90
2023/01/16 21:05:44;;;;;;;21.90;8.20;;;;;;;;;;6158602;23;20169;-94
2023/01/16 21:08:52;;;;;;;17.70;7.50;;;;;;;;;;6141618;23;20172;-91
2023/01/16 21:15:21;;;;;;;15.50;7.67;;;;;;;;;;6159693;23;20173;-90
2023/01/16 21:21:52;;;;;;;13.43;6.77;;;;;;;;;;6157083;23;20273;-89
2023/01/16 21:25:01;;;;;;;23.67;11.60;;;;;;;;;;6159007;23;20185;-90
2023/01/16 21:28:07;;;;;;;15.33;7.43;;;;;;;;;;6158169;23;20190;-89
2023/01/16 21:31:14;;;;;;;17.67;7.33;;;;;;;;;;6159017;23;20168;-91
2023/01/16 21:34:20;;;;;;;18.40;7.07;;;;;;;;;;6159179;23;20196;-90
2023/01/16 21:37:27;;;;;;;17.60;6.43;;;;;;;;;;6159211;23;20164;-91
2023/01/16 21:40:37;;;;;;;15.93;7.10;;;;;;;;;;6159783;23;20222;-90
2023/01/16 21:47:06;;;;;;;15.67;6.80;;;;;;;;;;6158212;23;20222;-90
2023/01/16 21:50:12;;;;;;;15.73;7.07;;;;;;;;;;6160063;23;20168;-92
2023/01/16 21:53:18;;;;;;;15.77;6.83;;;;;;;;;;6158670;23;20180;-91
2023/01/16 21:56:43;;;;;;;19.07;6.40;;;;;;;;;;6160563;23;20153;-90
2023/01/16 22:00:04;;;;;;;15.00;6.60;;;;;;;;;;6159729;23;20168;-90
2023/01/16 22:03:16;;;;;;;16.07;7.20;;;;;;;;;;6178008;23;20169;-91
2023/01/16 22:06:23;;;;;;;17.90;7.50;;;;;;;;;;6159719;23;20189;-89
2023/01/16 22:09:32;;;;;;;20.80;8.27;;;;;;;;;;6158978;23;20167;-89
2023/01/16 22:19:32;;;;;;;20.27;8.27;;;;;;;;;;6176602;23;20161;-92
2023/01/16 22:22:38;;;;;;;18.47;8.00;;;;;;;;;;6158183;23;20226;-89
2023/01/16 22:25:44;;;;;;;20.47;8.10;;;;;;;;;;6160081;23;20181;-90
2023/01/16 22:28:49;;;;;;;20.93;8.43;;;;;;;;;;6159203;23;20185;-90
2023/01/16 22:31:56;;;;;;;18.23;7.80;;;;;;;;;;6159874;23;20201;-90
2023/01/16 22:35:06;;;;;;;13.27;6.50;;;;;;;;;;6158166;23;20215;-89
2023/01/16 22:38:11;;;;;;;14.07;6.23;;;;;;;;;;6159106;23;20176;-92
2023/01/16 22:41:19;;;;;;;15.67;6.43;;;;;;;;;;6158538;23;20173;-91
2023/01/16 22:47:50;;;;;;;15.33;6.00;;;;;;;;;;6159808;23;20172;-91
2023/01/16 22:50:58;;;;;;;9.20;4.67;;;;;;;;;;6160917;23;20168;-90
2023/01/16 22:54:04;;;;;;;11.53;4.87;;;;;;;;;;6159430;23;20263;-89
2023/01/16 22:57:10;;;;;;;12.67;5.13;;;;;;;;;;6159303;23;20157;-91
2023/01/16 23:00:16;;;;;;;10.83;5.20;;;;;;;;;;6159717;23;20185;-91
2023/01/16 23:03:22;;;;;;;10.97;5.03;;;;;;;;;;6158837;23;20176;-91
2023/01/16 23:06:29;;;;;;;12.10;5.13;;;;;;;;;;6158070;23;20208;-91
2023/01/16 23:09:35;;;;;;;9.30;4.40;;;;;;;;;;6159342;23;20169;-91
2023/01/16 23:12:40;;;;;;;9.27;4.60;;;;;;;;;;6160165;23;20156;-92
2023/01/16 23:15:50;;;;;;;10.57;5.10;;;;;;;;;;6159256;23;20167;-91
2023/01/16 23:18:55;;;;;;;11.47;4.63;;;;;;;;;;6159116;23;20169;-89
2023/01/16 23:22:03;;;;;;;10.47;5.07;;;;;;;;;;6159364;23;20176;-91
2023/01/16 23:25:08;;;;;;;9.27;4.10;;;;;;;;;;6159562;23;20168;-91
2023/01/16 23:28:14;;;;;;;10.47;4.50;;;;;;;;;;6160057;23;20177;-92
2023/01/16 23:31:20;;;;;;;9.90;4.23;;;;;;;;;;6159463;23;20233;-90
2023/01/16 23:34:26;;;;;;;8.60;3.67;;;;;;;;;;6157938;23;20296;-91
2023/01/16 23:37:33;;;;;;;10.07;4.03;;;;;;;;;;6159126;23;20180;-91
2023/01/16 23:40:39;;;;;;;9.83;3.80;;;;;;;;;;6158459;23;20164;-91
2023/01/16 23:47:14;;;;;;;7.97;3.67;;;;;;;;;;6158188;23;20168;-89
2023/01/16 23:50:19;;;;;;;8.27;3.47;;;;;;;;;;6158442;23;20212;-91
2023/01/16 23:53:26;;;;;;;11.07;4.33;;;;;;;;;;6157962;23;20168;-92
2023/01/16 23:56:32;;;;;;;7.00;3.23;;;;;;;;;;6157603;23;20176;-90
2023/01/16 23:59:37;;;;;;;8.87;3.80;;;;;;;;;;6158553;23;20192;-90
